createdAt,value
2019-02-24T00:00:54.943Z,11.20
2019-02-24T00:03:43.019Z,10.72
2019-02-24T00:06:31.243Z,10.40
2019-02-24T00:09:12.264Z,10.55
2019-02-24T00:11:53.582Z,9.93
2019-02-24T00:14:34.559Z,9.55
2019-02-24T00:17:15.368Z,10.28
2019-02-24T00:19:55.966Z,9.70
2019-02-24T00:22:37.245Z,9.05
2019-02-24T00:25:18.230Z,9.67
2019-02-24T00:28:06.965Z,10.25
2019-02-24T00:33:11.856Z,8.80
2019-02-24T00:35:59.896Z,8.88
2019-02-24T00:38:48.074Z,9.35
2019-02-24T00:41:36.166Z,7.97
2019-02-24T00:44:24.220Z,8.20
2019-02-24T00:47:12.344Z,8.75
2019-02-24T00:50:00.379Z,8.03
2019-02-24T00:52:48.483Z,8.20
2019-02-24T00:55:36.624Z,8.40
2019-02-24T00:58:24.694Z,8.60
2019-02-24T01:01:12.794Z,8.88
2019-02-24T01:04:00.946Z,9.85
2019-02-24T01:06:49.119Z,9.78
2019-02-24T01:09:37.178Z,9.53
2019-02-24T01:12:25.420Z,9.50
2019-02-24T01:15:13.501Z,8.85
2019-02-24T01:18:01.559Z,8.78
2019-02-24T01:20:42.984Z,8.10
2019-02-24T01:23:24.052Z,8.73
2019-02-24T01:26:05.346Z,8.10
2019-02-24T01:28:46.700Z,7.90
2019-02-24T01:31:27.606Z,8.90
2019-02-24T01:34:08.644Z,8.50
2019-02-24T01:36:51.210Z,9.40
2019-02-24T01:39:32.002Z,10.38
2019-02-24T01:42:12.430Z,10.90
2019-02-24T01:47:23.820Z,10.10
2019-02-24T01:50:11.948Z,10.88
2019-02-24T01:52:40.855Z,11.65
2019-02-24T01:55:09.848Z,10.03
2019-02-24T01:57:39.083Z,11.08
2019-02-24T02:00:08.888Z,11.03
2019-02-24T02:02:57.006Z,11.35
2019-02-24T02:05:25.879Z,10.20
2019-02-24T02:08:13.949Z,9.65
2019-02-24T02:10:42.829Z,9.80
2019-02-24T02:13:11.749Z,9.20
2019-02-24T02:15:59.917Z,8.80
2019-02-24T02:18:48.004Z,10.23
2019-02-24T02:21:36.148Z,9.43
2019-02-24T02:24:24.416Z,9.05
2019-02-24T02:27:12.486Z,9.35
2019-02-24T02:30:00.669Z,8.95
2019-02-24T02:35:24.016Z,9.70
2019-02-24T02:38:04.456Z,10.43
2019-02-24T02:40:45.494Z,9.33
2019-02-24T02:43:26.795Z,10.18
2019-02-24T02:46:07.684Z,10.05
2019-02-24T02:48:48.172Z,9.90
2019-02-24T02:51:29.464Z,10.03
2019-02-24T02:54:10.055Z,9.85
2019-02-24T02:56:50.755Z,8.95
2019-02-24T02:59:31.557Z,9.50
2019-02-24T03:02:12.913Z,9.15
2019-02-24T03:04:53.550Z,10.15
2019-02-24T03:10:33.009Z,9.73
2019-02-24T03:13:13.725Z,9.05
2019-02-24T03:15:54.367Z,9.13
2019-02-24T03:18:35.971Z,9.53
2019-02-24T03:21:16.577Z,10.08
2019-02-24T03:23:58.110Z,9.70
2019-02-24T03:26:37.409Z,9.93
2019-02-24T03:29:25.636Z,9.30
2019-02-24T03:32:06.918Z,10.13
2019-02-24T03:34:47.779Z,9.20
2019-02-24T03:40:10.656Z,9.80
2019-02-24T03:42:52.135Z,10.58
2019-02-24T03:48:14.589Z,10.40
2019-02-24T03:50:55.677Z,10.38
2019-02-24T03:53:36.389Z,9.28
2019-02-24T03:56:05.273Z,9.35
2019-02-24T03:58:34.243Z,10.03
2019-02-24T04:01:03.284Z,10.30
2019-02-24T04:03:32.245Z,10.72
2019-02-24T04:06:01.057Z,9.93
2019-02-24T04:08:49.155Z,9.45
2019-02-24T04:11:28.547Z,10.45
2019-02-24T04:14:16.611Z,9.43
2019-02-24T04:17:04.669Z,9.93
2019-02-24T04:19:52.829Z,10.08
2019-02-24T04:22:40.859Z,10.00
2019-02-24T04:25:28.945Z,10.10
2019-02-24T04:28:16.992Z,10.13
2019-02-24T04:31:05.163Z,9.73
2019-02-24T04:33:53.241Z,10.08
2019-02-24T04:36:33.764Z,10.88
2019-02-24T04:39:14.806Z,9.38
2019-02-24T04:41:55.629Z,9.25
2019-02-24T04:44:36.753Z,9.15
2019-02-24T04:47:18.477Z,9.53
2019-02-24T04:49:59.355Z,9.68
2019-02-24T04:52:39.813Z,9.10
2019-02-24T04:55:20.499Z,9.15
2019-02-24T04:58:01.341Z,9.98
2019-02-24T05:00:42.534Z,9.50
2019-02-24T05:03:26.446Z,8.53
2019-02-24T05:06:07.839Z,8.50
2019-02-24T05:08:48.541Z,9.30
2019-02-24T05:11:28.854Z,9.03
2019-02-24T05:14:09.615Z,10.28
2019-02-24T05:16:50.919Z,9.73
2019-02-24T05:19:19.948Z,9.45
2019-02-24T05:21:48.786Z,9.23
2019-02-24T05:24:36.918Z,8.58
2019-02-24T05:27:25.010Z,8.98
2019-02-24T05:30:13.146Z,8.15
2019-02-24T05:33:01.272Z,9.10
2019-02-24T05:35:49.348Z,9.38
2019-02-24T05:38:18.277Z,9.50
2019-02-24T05:40:47.162Z,8.48
2019-02-24T05:43:35.220Z,8.90
2019-02-24T05:46:23.378Z,9.00
2019-02-24T05:49:11.596Z,9.53
2019-02-24T05:51:59.697Z,10.58
2019-02-24T05:54:48.024Z,9.78
2019-02-24T05:57:36.112Z,10.50
2019-02-24T06:00:24.248Z,10.20
2019-02-24T06:03:12.364Z,8.93
2019-02-24T06:06:00.429Z,9.80
2019-02-24T06:08:48.477Z,10.00
2019-02-24T06:11:36.617Z,9.05
2019-02-24T06:14:17.753Z,10.50
2019-02-24T06:16:58.520Z,10.18
2019-02-24T06:19:39.637Z,10.28
2019-02-24T06:22:20.276Z,9.73
2019-02-24T06:25:01.715Z,9.55
2019-02-24T06:27:43.196Z,10.28
2019-02-24T06:30:24.604Z,9.48
2019-02-24T06:33:05.511Z,11.28
2019-02-24T06:35:46.794Z,10.28
2019-02-24T06:38:27.392Z,10.50
2019-02-24T06:41:07.852Z,10.78
2019-02-24T06:46:31.309Z,10.00
2019-02-24T06:49:12.701Z,11.28
2019-02-24T06:51:54.019Z,10.75
2019-02-24T06:57:17.131Z,9.63
2019-02-24T06:59:58.051Z,10.45
2019-02-24T07:02:38.494Z,10.55
2019-02-24T07:05:19.018Z,10.00
2019-02-24T07:07:59.785Z,9.98
2019-02-24T07:10:41.423Z,10.00
2019-02-24T07:13:22.541Z,9.70
2019-02-24T07:16:03.986Z,9.83
2019-02-24T07:18:44.719Z,9.60
2019-02-24T07:21:26.139Z,10.43
2019-02-24T07:24:07.149Z,10.07
2019-02-24T07:26:47.789Z,10.37
2019-02-24T07:29:30.975Z,10.70
2019-02-24T07:32:11.869Z,9.27
2019-02-24T07:34:52.859Z,10.27
2019-02-24T07:37:33.339Z,9.50
2019-02-24T07:42:44.927Z,10.63
2019-02-24T07:45:13.881Z,10.50
2019-02-24T07:47:42.826Z,10.07
2019-02-24T07:50:30.868Z,9.35
2019-02-24T07:52:59.757Z,9.80
2019-02-24T07:55:28.704Z,10.43
2019-02-24T07:58:16.908Z,9.77
2019-02-24T08:01:05.106Z,9.53
2019-02-24T08:03:53.201Z,10.57
2019-02-24T08:06:41.243Z,10.40
2019-02-24T08:12:11.586Z,10.20
2019-02-24T08:14:59.888Z,10.70
2019-02-24T08:17:48.009Z,11.60
2019-02-24T08:20:36.385Z,10.97
2019-02-24T08:23:24.491Z,11.10
2019-02-24T08:26:12.567Z,10.57
2019-02-24T08:29:00.716Z,11.27
2019-02-24T08:31:48.784Z,11.13
2019-02-24T08:34:36.918Z,11.03
2019-02-24T08:37:25.217Z,11.23
2019-02-24T08:40:13.260Z,10.83
2019-02-24T08:45:36.205Z,10.33
2019-02-24T08:48:24.433Z,10.70
2019-02-24T08:51:12.542Z,11.10
2019-02-24T08:54:00.661Z,10.40
2019-02-24T08:56:48.931Z,10.43
2019-02-24T08:59:38.349Z,10.00
2019-02-24T09:02:26.818Z,10.03
2019-02-24T09:05:14.982Z,11.00
2019-02-24T09:07:55.634Z,10.90
2019-02-24T09:10:24.756Z,10.37
2019-02-24T09:12:54.065Z,10.73
2019-02-24T09:15:42.275Z,10.90
2019-02-24T09:18:30.405Z,11.20
2019-02-24T09:21:18.723Z,11.70
2019-02-24T09:24:07.041Z,11.00
2019-02-24T09:26:55.362Z,11.80
2019-02-24T09:29:24.556Z,12.00
2019-02-24T09:32:12.759Z,12.00
2019-02-24T09:35:01.567Z,13.43
2019-02-24T09:37:49.332Z,11.80
2019-02-24T09:40:37.672Z,12.87
2019-02-24T09:43:26.249Z,13.30
2019-02-24T09:46:14.605Z,12.00
2019-02-24T09:49:02.682Z,12.40
2019-02-24T09:51:52.327Z,13.40
2019-02-24T09:54:40.535Z,13.27
2019-02-24T09:57:28.834Z,13.67
2019-02-24T10:00:17.001Z,14.47
2019-02-24T10:03:05.461Z,13.50
2019-02-24T10:05:53.689Z,12.63
2019-02-24T10:08:35.169Z,13.07
2019-02-24T10:11:15.747Z,12.77
2019-02-24T10:16:54.792Z,11.03
2019-02-24T10:19:23.843Z,12.20
2019-02-24T10:21:52.720Z,12.20
2019-02-24T10:24:22.366Z,11.37
2019-02-24T10:26:51.378Z,12.13
2019-02-24T10:29:39.502Z,12.20
2019-02-24T10:32:27.886Z,11.27
2019-02-24T10:38:32.698Z,12.40
2019-02-24T10:41:20.743Z,11.53
2019-02-24T10:44:08.374Z,11.40
2019-02-24T10:46:56.564Z,11.67
2019-02-24T10:49:44.695Z,11.63
2019-02-24T10:52:32.807Z,10.83
2019-02-24T10:55:20.962Z,10.53
2019-02-24T10:58:09.700Z,10.23
2019-02-24T11:04:05.042Z,10.10
2019-02-24T11:06:53.084Z,10.13
2019-02-24T11:09:22.215Z,10.67
2019-02-24T11:11:51.409Z,8.63
2019-02-24T11:14:20.351Z,9.67
2019-02-24T11:16:49.449Z,8.70
2019-02-24T11:19:18.389Z,8.67
2019-02-24T11:21:47.369Z,8.57
2019-02-24T11:24:16.337Z,9.10
2019-02-24T11:26:45.265Z,9.03
2019-02-24T11:29:14.263Z,8.97
2019-02-24T11:31:43.212Z,8.43
2019-02-24T11:34:12.219Z,8.60
2019-02-24T11:36:41.238Z,9.27
2019-02-24T11:39:10.797Z,9.10
2019-02-24T11:41:39.745Z,8.90
2019-02-24T11:44:08.805Z,9.27
2019-02-24T11:46:37.769Z,8.50
2019-02-24T11:49:06.734Z,8.90
2019-02-24T11:51:35.669Z,9.00
2019-02-24T11:54:04.597Z,8.67
2019-02-24T11:56:33.631Z,7.50
2019-02-24T11:59:02.543Z,7.70
2019-02-24T12:01:31.539Z,7.27
2019-02-24T12:04:00.427Z,5.50
2019-02-24T12:06:29.447Z,5.97
2019-02-24T12:09:05.052Z,6.23
2019-02-24T12:11:28.985Z,5.70
2019-02-24T12:13:57.936Z,5.60
2019-02-24T12:16:29.909Z,5.50
2019-02-24T12:18:58.796Z,6.37
2019-02-24T12:21:27.741Z,4.70
2019-02-24T12:23:58.767Z,5.40
2019-02-24T12:26:27.725Z,7.30
2019-02-24T12:28:56.713Z,4.30
2019-02-24T12:31:25.717Z,3.97
2019-02-24T12:33:54.606Z,5.00
2019-02-24T12:36:23.581Z,4.10
2019-02-24T12:38:52.939Z,4.30
2019-02-24T12:41:21.930Z,6.50
2019-02-24T12:43:50.997Z,5.07
2019-02-24T12:46:19.930Z,4.40
2019-02-24T12:48:48.945Z,3.20
2019-02-24T12:51:18.021Z,4.33
2019-02-24T12:53:46.958Z,4.57
2019-02-24T12:56:15.842Z,5.40
2019-02-24T12:58:44.906Z,4.43
2019-02-24T13:01:14.047Z,6.00
2019-02-24T13:03:43.005Z,5.30
2019-02-24T13:06:12.063Z,4.80
2019-02-24T13:08:41.554Z,5.73
2019-02-24T13:11:10.782Z,4.90
2019-02-24T13:13:46.777Z,5.70
2019-02-24T13:16:24.394Z,5.17
2019-02-24T13:18:53.389Z,5.33
2019-02-24T13:21:22.360Z,5.10
2019-02-24T13:23:51.345Z,5.13
2019-02-24T13:26:20.281Z,5.70
2019-02-24T13:28:50.714Z,5.63
2019-02-24T13:31:19.808Z,5.00
2019-02-24T13:33:48.757Z,4.80
2019-02-24T13:36:17.682Z,5.33
2019-02-24T13:38:46.676Z,5.03
2019-02-24T13:41:15.737Z,4.97
2019-02-24T13:43:44.715Z,4.30
2019-02-24T13:46:13.772Z,4.90
2019-02-24T13:48:42.748Z,5.93
2019-02-24T13:51:11.794Z,5.20
2019-02-24T13:53:40.743Z,5.60
2019-02-24T13:56:09.844Z,5.50
2019-02-24T13:58:38.805Z,4.73
2019-02-24T14:01:07.778Z,4.57
2019-02-24T14:03:36.854Z,5.00
2019-02-24T14:06:05.812Z,4.73
2019-02-24T14:08:36.072Z,5.47
2019-02-24T14:11:05.110Z,5.13
2019-02-24T14:13:34.060Z,4.90
2019-02-24T14:16:02.990Z,5.13
2019-02-24T14:18:32.016Z,6.63
2019-02-24T14:21:00.948Z,5.27
2019-02-24T14:23:29.923Z,5.73
2019-02-24T14:25:58.963Z,5.50
2019-02-24T14:28:27.952Z,4.87
2019-02-24T14:30:56.827Z,4.90
2019-02-24T14:33:25.751Z,4.80
2019-02-24T14:35:54.911Z,5.23
2019-02-24T14:38:23.971Z,6.10
2019-02-24T14:40:52.914Z,5.40
2019-02-24T14:43:21.862Z,5.30
2019-02-24T14:45:50.756Z,4.90
2019-02-24T14:48:19.811Z,5.07
2019-02-24T14:50:48.794Z,4.60
2019-02-24T14:53:17.756Z,5.60
2019-02-24T14:55:46.782Z,4.10
2019-02-24T14:58:15.748Z,4.67
2019-02-24T15:00:44.818Z,5.40
2019-02-24T15:03:13.769Z,4.97
2019-02-24T15:05:42.790Z,5.13
2019-02-24T15:08:11.926Z,4.90
2019-02-24T15:10:40.946Z,5.50
2019-02-24T15:13:09.873Z,4.93
2019-02-24T15:15:38.928Z,4.60
2019-02-24T15:18:07.899Z,4.60
2019-02-24T15:20:36.838Z,4.57
2019-02-24T15:23:06.733Z,4.83
2019-02-24T15:25:35.944Z,4.43
2019-02-24T15:28:05.105Z,4.33
2019-02-24T15:30:34.279Z,4.07
2019-02-24T15:33:03.252Z,4.00
2019-02-24T15:35:32.279Z,3.83
2019-02-24T15:38:01.207Z,3.00
2019-02-24T15:40:30.277Z,3.90
2019-02-24T15:42:59.231Z,3.40
2019-02-24T15:45:28.159Z,3.30
2019-02-24T15:47:57.180Z,3.73
2019-02-24T15:50:26.158Z,3.43
2019-02-24T15:52:57.724Z,4.30
2019-02-24T15:55:26.858Z,3.63
2019-02-24T15:57:55.751Z,5.63
2019-02-24T16:00:24.833Z,4.17
2019-02-24T16:03:01.173Z,4.07
2019-02-24T16:05:24.517Z,5.20
2019-02-24T16:07:53.533Z,7.53
2019-02-24T16:10:22.435Z,3.73
2019-02-24T16:12:51.477Z,4.37
2019-02-24T16:15:20.611Z,4.20
2019-02-24T16:17:49.631Z,4.30
2019-02-24T16:20:21.054Z,6.60
2019-02-24T16:22:50.023Z,7.40
2019-02-24T16:25:19.063Z,7.87
2019-02-24T16:27:48.012Z,7.03
2019-02-24T16:30:17.099Z,5.73
2019-02-24T16:32:46.079Z,30.10
2019-02-24T16:35:17.199Z,8.50
2019-02-24T16:37:46.144Z,8.63
2019-02-24T16:40:17.071Z,6.90
2019-02-24T16:42:45.947Z,7.00
2019-02-24T16:45:15.325Z,7.80
2019-02-24T16:47:44.686Z,6.03
2019-02-24T16:50:14.950Z,5.83
2019-02-24T16:52:43.889Z,5.20
2019-02-24T16:55:13.821Z,5.07
2019-02-24T16:57:43.003Z,4.40
2019-02-24T17:00:17.248Z,4.73
2019-02-24T17:02:46.274Z,4.27
2019-02-24T17:05:15.606Z,5.43
2019-02-24T17:11:35.393Z,5.03
2019-02-24T17:17:01.530Z,5.20
2019-02-24T17:19:28.831Z,5.60
2019-02-24T17:21:57.780Z,5.33
2019-02-24T17:24:27.051Z,6.27
2019-02-24T17:26:56.016Z,5.20
2019-02-24T17:29:24.838Z,6.33
2019-02-24T17:32:13.098Z,6.07
2019-02-24T17:34:42.034Z,6.40
2019-02-24T17:37:19.640Z,5.70
2019-02-24T17:39:41.688Z,5.40
2019-02-24T17:42:10.609Z,6.10
2019-02-24T17:44:58.628Z,6.60
2019-02-24T17:47:46.759Z,6.10
2019-02-24T17:50:34.883Z,8.23
2019-02-24T17:53:23.162Z,8.40
2019-02-24T17:56:03.915Z,6.30
2019-02-24T17:58:45.188Z,6.73
2019-02-24T18:01:25.737Z,6.50
2019-02-24T18:04:11.705Z,7.63
2019-02-24T18:06:52.231Z,27.07
2019-02-24T18:09:39.594Z,10.50
2019-02-24T18:12:20.870Z,9.50
2019-02-24T18:15:01.814Z,8.17
2019-02-24T18:17:42.398Z,8.40
2019-02-24T18:20:13.274Z,9.60
2019-02-24T18:22:42.878Z,9.30
2019-02-24T18:25:12.000Z,7.50
2019-02-24T18:28:00.034Z,7.33
2019-02-24T18:30:48.129Z,6.40
2019-02-24T18:33:36.198Z,7.40
2019-02-24T18:36:25.378Z,7.80
2019-02-24T18:39:20.294Z,7.30
2019-02-24T18:42:08.450Z,6.73
2019-02-24T18:44:56.793Z,8.20
2019-02-24T18:47:45.254Z,6.70
2019-02-24T18:50:35.040Z,7.80
2019-02-24T18:53:23.168Z,8.10
2019-02-24T18:56:11.340Z,8.20
2019-02-24T18:58:59.483Z,11.23
2019-02-24T19:01:47.672Z,9.90
2019-02-24T19:04:35.754Z,9.13
2019-02-24T19:07:24.554Z,8.20
2019-02-24T19:13:21.307Z,12.50
2019-02-24T19:16:03.602Z,11.77
2019-02-24T19:18:33.094Z,9.70
2019-02-24T19:21:21.291Z,9.00
2019-02-24T19:24:09.681Z,9.27
2019-02-24T19:26:57.937Z,10.80
2019-02-24T19:29:46.309Z,9.20
2019-02-24T19:32:34.442Z,8.20
2019-02-24T19:35:22.587Z,7.90
2019-02-24T19:38:10.757Z,9.07
2019-02-24T19:40:58.876Z,7.90
2019-02-24T19:43:47.075Z,7.93
2019-02-24T19:46:35.149Z,7.93
2019-02-24T19:49:23.329Z,7.60
2019-02-24T19:52:11.446Z,7.23
2019-02-24T19:54:59.644Z,8.20
2019-02-24T19:57:47.988Z,6.90
2019-02-24T20:00:36.089Z,8.80
2019-02-24T20:03:24.154Z,7.77
2019-02-24T20:06:12.346Z,9.03
2019-02-24T20:09:00.813Z,8.43
2019-02-24T20:11:48.907Z,9.00
2019-02-24T20:14:29.797Z,9.20
2019-02-24T20:17:10.583Z,9.20
2019-02-24T20:22:33.763Z,10.50
2019-02-24T20:25:02.808Z,10.23
2019-02-24T20:27:51.262Z,10.70
2019-02-24T20:30:39.439Z,10.77
2019-02-24T20:33:27.797Z,10.93
2019-02-24T20:36:16.131Z,11.20
2019-02-24T20:39:05.001Z,10.43
2019-02-24T20:41:53.285Z,11.00
2019-02-24T20:44:22.218Z,11.93
2019-02-24T20:47:10.393Z,14.40
2019-02-24T20:49:58.706Z,14.30
2019-02-24T20:52:46.889Z,15.00
2019-02-24T20:55:35.050Z,13.90
2019-02-24T20:58:23.371Z,12.87
2019-02-24T21:01:11.719Z,17.60
2019-02-24T21:03:59.923Z,16.43
2019-02-24T21:06:47.999Z,13.80
2019-02-24T21:09:36.315Z,11.57
2019-02-24T21:12:05.408Z,11.77
2019-02-24T21:14:45.839Z,10.97
2019-02-24T21:17:26.433Z,10.10
2019-02-24T21:20:06.949Z,11.30
2019-02-24T21:22:47.355Z,11.90
2019-02-24T21:25:28.439Z,11.77
2019-02-24T21:28:09.267Z,12.20
2019-02-24T21:30:50.152Z,12.37
2019-02-24T21:33:19.912Z,11.40
2019-02-24T21:36:08.130Z,11.33
2019-02-24T21:38:56.376Z,11.80
2019-02-24T21:41:44.489Z,12.50
2019-02-24T21:44:32.577Z,10.17
2019-02-24T21:47:20.696Z,11.10
2019-02-24T21:50:09.420Z,10.37
2019-02-24T21:52:57.548Z,11.73
2019-02-24T21:55:45.731Z,11.47
2019-02-24T21:58:33.803Z,9.87
2019-02-24T22:01:22.175Z,11.27
2019-02-24T22:04:10.359Z,10.47
2019-02-24T22:06:58.409Z,10.80
2019-02-24T22:09:46.566Z,11.40
2019-02-24T22:12:34.669Z,11.40
2019-02-24T22:15:22.959Z,12.70
2019-02-24T22:18:11.241Z,11.60
2019-02-24T22:20:59.462Z,12.30
2019-02-24T22:23:47.662Z,12.67
2019-02-24T22:26:35.885Z,11.20
2019-02-24T22:29:24.006Z,12.13
2019-02-24T22:32:12.072Z,12.00
2019-02-24T22:35:00.376Z,12.20
2019-02-24T22:37:48.555Z,13.47
2019-02-24T22:40:36.594Z,12.10
2019-02-24T22:43:24.707Z,11.67
2019-02-24T22:45:53.697Z,12.87
2019-02-24T22:48:42.000Z,12.70
2019-02-24T22:51:10.868Z,13.10
2019-02-24T22:53:58.884Z,11.57
2019-02-24T22:56:27.854Z,12.53
2019-02-24T22:58:56.753Z,12.53
2019-02-24T23:01:32.423Z,12.20
2019-02-24T23:04:20.582Z,12.10
2019-02-24T23:06:49.461Z,12.70
2019-02-24T23:09:40.778Z,11.80
2019-02-24T23:12:28.917Z,11.83
2019-02-24T23:15:10.294Z,11.20
2019-02-24T23:20:33.268Z,10.70
2019-02-24T23:23:14.498Z,11.60
2019-02-24T23:25:55.816Z,11.30
2019-02-24T23:28:37.029Z,12.33
2019-02-24T23:31:17.819Z,11.70
2019-02-24T23:33:58.668Z,13.53
2019-02-24T23:36:46.780Z,13.90
2019-02-24T23:39:17.331Z,12.50
2019-02-24T23:41:47.110Z,11.07
2019-02-24T23:44:35.914Z,12.23
2019-02-24T23:47:23.980Z,11.40
2019-02-24T23:50:12.542Z,11.13
2019-02-24T23:53:00.703Z,11.77
2019-02-24T23:55:48.872Z,12.90
2019-02-24T23:58:37.138Z,11.07
